sensor_id;sensor_type;location;lat;lon;timestamp;P1;durP1;ratioP1;P2;durP2;ratioP2
13349;SDS011;6744;53.190;6.576;2022-12-07T00:01:36;3.53;;;1.27;;
13349;SDS011;6744;53.190;6.576;2022-12-07T00:04:04;4.60;;;1.37;;
13349;SDS011;6744;53.190;6.576;2022-12-07T00:06:31;2.03;;;0.90;;
13349;SDS011;6744;53.190;6.576;2022-12-07T00:09:01;2.40;;;0.80;;
13349;SDS011;6744;53.190;6.576;2022-12-07T00:11:26;2.87;;;0.80;;
13349;SDS011;6744;53.190;6.576;2022-12-07T00:13:53;2.83;;;0.80;;
13349;SDS011;6744;53.190;6.576;2022-12-07T00:16:21;2.60;;;0.83;;
13349;SDS011;6744;53.190;6.576;2022-12-07T00:18:47;2.97;;;0.87;;
13349;SDS011;6744;53.190;6.576;2022-12-07T00:21:13;2.27;;;0.97;;
13349;SDS011;6744;53.190;6.576;2022-12-07T00:23:43;2.10;;;0.70;;
13349;SDS011;6744;53.190;6.576;2022-12-07T00:26:10;3.10;;;0.70;;
13349;SDS011;6744;53.190;6.576;2022-12-07T00:28:47;3.30;;;0.80;;
13349;SDS011;6744;53.190;6.576;2022-12-07T00:31:13;2.83;;;0.60;;
13349;SDS011;6744;53.190;6.576;2022-12-07T00:33:40;2.07;;;0.70;;
13349;SDS011;6744;53.190;6.576;2022-12-07T00:36:06;2.20;;;0.80;;
13349;SDS011;6744;53.190;6.576;2022-12-07T00:38:34;2.47;;;0.80;;
13349;SDS011;6744;53.190;6.576;2022-12-07T00:41:07;2.53;;;0.90;;
13349;SDS011;6744;53.190;6.576;2022-12-07T00:43:34;2.80;;;0.80;;
13349;SDS011;6744;53.190;6.576;2022-12-07T00:46:00;4.30;;;0.97;;
13349;SDS011;6744;53.190;6.576;2022-12-07T00:48:25;2.77;;;0.73;;
13349;SDS011;6744;53.190;6.576;2022-12-07T00:50:51;2.27;;;0.93;;
13349;SDS011;6744;53.190;6.576;2022-12-07T00:53:17;3.00;;;1.00;;
13349;SDS011;6744;53.190;6.576;2022-12-07T00:55:42;2.30;;;0.83;;
13349;SDS011;6744;53.190;6.576;2022-12-07T00:58:08;2.97;;;0.90;;
13349;SDS011;6744;53.190;6.576;2022-12-07T01:00:35;3.20;;;0.90;;
13349;SDS011;6744;53.190;6.576;2022-12-07T01:03:02;4.00;;;1.00;;
13349;SDS011;6744;53.190;6.576;2022-12-07T01:05:27;2.97;;;0.77;;
13349;SDS011;6744;53.190;6.576;2022-12-07T01:07:53;4.07;;;0.90;;
13349;SDS011;6744;53.190;6.576;2022-12-07T01:10:18;4.10;;;1.13;;
13349;SDS011;6744;53.190;6.576;2022-12-07T01:12:44;2.80;;;0.50;;
13349;SDS011;6744;53.190;6.576;2022-12-07T01:15:09;4.37;;;0.97;;
13349;SDS011;6744;53.190;6.576;2022-12-07T01:17:35;4.33;;;0.80;;
13349;SDS011;6744;53.190;6.576;2022-12-07T01:20:00;4.03;;;1.00;;
13349;SDS011;6744;53.190;6.576;2022-12-07T01:22:26;3.10;;;0.70;;
13349;SDS011;6744;53.190;6.576;2022-12-07T01:24:51;2.27;;;0.60;;
13349;SDS011;6744;53.190;6.576;2022-12-07T01:27:17;3.27;;;0.60;;
13349;SDS011;6744;53.190;6.576;2022-12-07T01:29:42;3.20;;;0.73;;
13349;SDS011;6744;53.190;6.576;2022-12-07T01:32:07;2.20;;;0.50;;
13349;SDS011;6744;53.190;6.576;2022-12-07T01:34:33;4.00;;;0.80;;
13349;SDS011;6744;53.190;6.576;2022-12-07T01:36:58;2.17;;;0.57;;
13349;SDS011;6744;53.190;6.576;2022-12-07T01:39:23;2.53;;;0.73;;
13349;SDS011;6744;53.190;6.576;2022-12-07T01:41:49;3.40;;;0.80;;
13349;SDS011;6744;53.190;6.576;2022-12-07T01:44:20;4.60;;;1.07;;
13349;SDS011;6744;53.190;6.576;2022-12-07T01:46:48;3.27;;;1.13;;
13349;SDS011;6744;53.190;6.576;2022-12-07T01:49:29;1.90;;;0.60;;
13349;SDS011;6744;53.190;6.576;2022-12-07T01:54:35;2.47;;;1.00;;
13349;SDS011;6744;53.190;6.576;2022-12-07T01:57:01;1.97;;;0.73;;
13349;SDS011;6744;53.190;6.576;2022-12-07T01:59:26;1.83;;;0.73;;
13349;SDS011;6744;53.190;6.576;2022-12-07T02:01:52;3.47;;;0.60;;
13349;SDS011;6744;53.190;6.576;2022-12-07T02:04:19;2.67;;;0.70;;
13349;SDS011;6744;53.190;6.576;2022-12-07T02:06:44;2.77;;;0.90;;
13349;SDS011;6744;53.190;6.576;2022-12-07T02:09:11;1.70;;;0.60;;
13349;SDS011;6744;53.190;6.576;2022-12-07T02:11:37;1.10;;;0.60;;
13349;SDS011;6744;53.190;6.576;2022-12-07T02:14:02;1.40;;;0.63;;
13349;SDS011;6744;53.190;6.576;2022-12-07T02:16:31;1.97;;;0.70;;
13349;SDS011;6744;53.190;6.576;2022-12-07T02:21:44;2.40;;;0.77;;
13349;SDS011;6744;53.190;6.576;2022-12-07T02:25:13;1.73;;;0.63;;
13349;SDS011;6744;53.190;6.576;2022-12-07T02:30:06;3.03;;;1.07;;
13349;SDS011;6744;53.190;6.576;2022-12-07T02:32:42;5.67;;;1.10;;
13349;SDS011;6744;53.190;6.576;2022-12-07T02:35:51;3.80;;;1.03;;
13349;SDS011;6744;53.190;6.576;2022-12-07T02:38:04;2.83;;;0.70;;
13349;SDS011;6744;53.190;6.576;2022-12-07T02:40:54;1.70;;;0.60;;
13349;SDS011;6744;53.190;6.576;2022-12-07T02:45:52;4.63;;;1.13;;
13349;SDS011;6744;53.190;6.576;2022-12-07T02:48:20;3.40;;;1.10;;
13349;SDS011;6744;53.190;6.576;2022-12-07T02:50:49;5.67;;;1.30;;
13349;SDS011;6744;53.190;6.576;2022-12-07T03:10:16;2.23;;;0.77;;
13349;SDS011;6744;53.190;6.576;2022-12-07T03:13:54;2.23;;;0.50;;
13349;SDS011;6744;53.190;6.576;2022-12-07T03:16:07;2.67;;;0.70;;
13349;SDS011;6744;53.190;6.576;2022-12-07T03:18:37;1.80;;;0.40;;
13349;SDS011;6744;53.190;6.576;2022-12-07T03:21:06;1.90;;;0.80;;
13349;SDS011;6744;53.190;6.576;2022-12-07T03:23:37;4.10;;;0.60;;
13349;SDS011;6744;53.190;6.576;2022-12-07T03:26:05;3.20;;;0.80;;
13349;SDS011;6744;53.190;6.576;2022-12-07T03:28:35;3.03;;;0.67;;
13349;SDS011;6744;53.190;6.576;2022-12-07T03:31:03;3.03;;;0.50;;
13349;SDS011;6744;53.190;6.576;2022-12-07T03:34:01;2.23;;;0.50;;
13349;SDS011;6744;53.190;6.576;2022-12-07T03:36:40;2.93;;;0.93;;
13349;SDS011;6744;53.190;6.576;2022-12-07T03:39:33;2.87;;;0.70;;
13349;SDS011;6744;53.190;6.576;2022-12-07T03:42:02;2.40;;;0.70;;
13349;SDS011;6744;53.190;6.576;2022-12-07T03:44:29;1.27;;;0.53;;
13349;SDS011;6744;53.190;6.576;2022-12-07T03:49:40;4.17;;;0.90;;
13349;SDS011;6744;53.190;6.576;2022-12-07T03:54:48;2.23;;;0.77;;
13349;SDS011;6744;53.190;6.576;2022-12-07T03:57:20;2.57;;;0.57;;
13349;SDS011;6744;53.190;6.576;2022-12-07T03:59:46;3.17;;;0.70;;
13349;SDS011;6744;53.190;6.576;2022-12-07T04:02:12;2.70;;;0.73;;
13349;SDS011;6744;53.190;6.576;2022-12-07T04:04:39;1.47;;;0.60;;
13349;SDS011;6744;53.190;6.576;2022-12-07T04:07:04;2.20;;;0.80;;
13349;SDS011;6744;53.190;6.576;2022-12-07T04:09:30;4.30;;;0.87;;
13349;SDS011;6744;53.190;6.576;2022-12-07T04:11:55;2.10;;;0.50;;
13349;SDS011;6744;53.190;6.576;2022-12-07T04:14:20;1.97;;;0.60;;
13349;SDS011;6744;53.190;6.576;2022-12-07T04:16:50;1.77;;;0.50;;
13349;SDS011;6744;53.190;6.576;2022-12-07T04:19:17;2.03;;;0.53;;
13349;SDS011;6744;53.190;6.576;2022-12-07T04:21:44;1.40;;;0.50;;
13349;SDS011;6744;53.190;6.576;2022-12-07T04:24:09;1.33;;;0.40;;
13349;SDS011;6744;53.190;6.576;2022-12-07T04:26:35;1.40;;;0.40;;
13349;SDS011;6744;53.190;6.576;2022-12-07T04:29:00;1.70;;;0.40;;
13349;SDS011;6744;53.190;6.576;2022-12-07T04:31:25;1.73;;;0.37;;
13349;SDS011;6744;53.190;6.576;2022-12-07T04:33:51;1.20;;;0.50;;
13349;SDS011;6744;53.190;6.576;2022-12-07T04:36:16;0.80;;;0.30;;
13349;SDS011;6744;53.190;6.576;2022-12-07T04:38:41;1.67;;;0.50;;
13349;SDS011;6744;53.190;6.576;2022-12-07T04:41:07;1.20;;;0.50;;
13349;SDS011;6744;53.190;6.576;2022-12-07T04:43:34;1.93;;;0.50;;
13349;SDS011;6744;53.190;6.576;2022-12-07T04:46:00;1.40;;;0.50;;
13349;SDS011;6744;53.190;6.576;2022-12-07T04:48:26;3.37;;;0.70;;
13349;SDS011;6744;53.190;6.576;2022-12-07T04:50:51;2.50;;;0.77;;
13349;SDS011;6744;53.190;6.576;2022-12-07T04:53:16;3.00;;;0.70;;
13349;SDS011;6744;53.190;6.576;2022-12-07T04:55:42;2.23;;;0.80;;
13349;SDS011;6744;53.190;6.576;2022-12-07T04:58:07;2.87;;;0.87;;
13349;SDS011;6744;53.190;6.576;2022-12-07T05:00:32;4.80;;;0.90;;
13349;SDS011;6744;53.190;6.576;2022-12-07T05:02:58;3.37;;;0.90;;
13349;SDS011;6744;53.190;6.576;2022-12-07T05:05:23;3.97;;;0.80;;
13349;SDS011;6744;53.190;6.576;2022-12-07T05:07:49;3.17;;;0.53;;
13349;SDS011;6744;53.190;6.576;2022-12-07T05:10:15;1.40;;;0.47;;
13349;SDS011;6744;53.190;6.576;2022-12-07T05:12:40;1.43;;;0.40;;
13349;SDS011;6744;53.190;6.576;2022-12-07T05:15:05;2.13;;;0.60;;
13349;SDS011;6744;53.190;6.576;2022-12-07T05:17:31;1.87;;;0.50;;
13349;SDS011;6744;53.190;6.576;2022-12-07T05:19:56;1.00;;;0.30;;
13349;SDS011;6744;53.190;6.576;2022-12-07T05:22:21;2.10;;;0.60;;
13349;SDS011;6744;53.190;6.576;2022-12-07T05:24:47;2.60;;;0.50;;
13349;SDS011;6744;53.190;6.576;2022-12-07T05:27:12;0.70;;;0.40;;
13349;SDS011;6744;53.190;6.576;2022-12-07T05:29:37;2.27;;;0.47;;
13349;SDS011;6744;53.190;6.576;2022-12-07T05:32:03;1.60;;;0.50;;
13349;SDS011;6744;53.190;6.576;2022-12-07T05:34:28;1.63;;;0.53;;
13349;SDS011;6744;53.190;6.576;2022-12-07T05:36:54;1.80;;;0.40;;
13349;SDS011;6744;53.190;6.576;2022-12-07T05:39:19;1.97;;;0.50;;
13349;SDS011;6744;53.190;6.576;2022-12-07T05:41:44;1.50;;;0.50;;
13349;SDS011;6744;53.190;6.576;2022-12-07T05:44:28;2.20;;;0.83;;
13349;SDS011;6744;53.190;6.576;2022-12-07T05:46:54;1.57;;;0.60;;
13349;SDS011;6744;53.190;6.576;2022-12-07T05:49:19;2.47;;;0.60;;
13349;SDS011;6744;53.190;6.576;2022-12-07T05:51:44;1.77;;;0.60;;
13349;SDS011;6744;53.190;6.576;2022-12-07T05:54:10;2.47;;;0.53;;
13349;SDS011;6744;53.190;6.576;2022-12-07T05:56:35;2.40;;;0.50;;
13349;SDS011;6744;53.190;6.576;2022-12-07T05:59:00;2.67;;;0.73;;
13349;SDS011;6744;53.190;6.576;2022-12-07T06:01:44;2.80;;;0.70;;
13349;SDS011;6744;53.190;6.576;2022-12-07T06:04:10;1.20;;;0.50;;
13349;SDS011;6744;53.190;6.576;2022-12-07T06:06:35;2.30;;;0.70;;
13349;SDS011;6744;53.190;6.576;2022-12-07T06:09:01;2.57;;;0.60;;
13349;SDS011;6744;53.190;6.576;2022-12-07T06:11:26;3.67;;;0.80;;
13349;SDS011;6744;53.190;6.576;2022-12-07T06:14:10;4.10;;;0.90;;
13349;SDS011;6744;53.190;6.576;2022-12-07T06:16:35;6.23;;;1.23;;
13349;SDS011;6744;53.190;6.576;2022-12-07T06:19:00;5.33;;;1.07;;
13349;SDS011;6744;53.190;6.576;2022-12-07T06:21:26;3.90;;;1.20;;
13349;SDS011;6744;53.190;6.576;2022-12-07T06:23:51;5.00;;;1.00;;
13349;SDS011;6744;53.190;6.576;2022-12-07T06:26:17;4.70;;;0.80;;
13349;SDS011;6744;53.190;6.576;2022-12-07T06:28:42;3.47;;;0.93;;
13349;SDS011;6744;53.190;6.576;2022-12-07T06:31:08;3.93;;;0.80;;
13349;SDS011;6744;53.190;6.576;2022-12-07T06:33:34;3.00;;;1.10;;
13349;SDS011;6744;53.190;6.576;2022-12-07T06:35:59;5.47;;;0.87;;
13349;SDS011;6744;53.190;6.576;2022-12-07T06:38:24;2.47;;;0.90;;
13349;SDS011;6744;53.190;6.576;2022-12-07T06:40:49;4.40;;;0.90;;
13349;SDS011;6744;53.190;6.576;2022-12-07T06:43:15;2.00;;;0.60;;
13349;SDS011;6744;53.190;6.576;2022-12-07T06:45:40;1.90;;;0.70;;
13349;SDS011;6744;53.190;6.576;2022-12-07T06:48:06;2.80;;;0.70;;
13349;SDS011;6744;53.190;6.576;2022-12-07T06:50:31;1.97;;;0.70;;
13349;SDS011;6744;53.190;6.576;2022-12-07T06:52:57;2.57;;;0.60;;
13349;SDS011;6744;53.190;6.576;2022-12-07T06:55:22;1.87;;;0.50;;
13349;SDS011;6744;53.190;6.576;2022-12-07T06:57:47;1.53;;;0.50;;
13349;SDS011;6744;53.190;6.576;2022-12-07T07:00:13;1.30;;;0.60;;
13349;SDS011;6744;53.190;6.576;2022-12-07T07:02:39;3.63;;;0.80;;
13349;SDS011;6744;53.190;6.576;2022-12-07T07:05:04;1.70;;;0.80;;
13349;SDS011;6744;53.190;6.576;2022-12-07T07:07:29;2.17;;;0.70;;
13349;SDS011;6744;53.190;6.576;2022-12-07T07:09:55;1.50;;;0.77;;
13349;SDS011;6744;53.190;6.576;2022-12-07T07:12:20;3.97;;;1.90;;
13349;SDS011;6744;53.190;6.576;2022-12-07T07:14:45;3.53;;;1.03;;
13349;SDS011;6744;53.190;6.576;2022-12-07T07:17:11;5.23;;;1.10;;
13349;SDS011;6744;53.190;6.576;2022-12-07T07:19:36;3.30;;;0.70;;
13349;SDS011;6744;53.190;6.576;2022-12-07T07:22:02;2.60;;;0.67;;
13349;SDS011;6744;53.190;6.576;2022-12-07T07:24:28;4.13;;;0.90;;
13349;SDS011;6744;53.190;6.576;2022-12-07T07:26:53;2.70;;;0.80;;
13349;SDS011;6744;53.190;6.576;2022-12-07T07:29:19;3.43;;;0.60;;
13349;SDS011;6744;53.190;6.576;2022-12-07T07:31:44;4.30;;;0.90;;
13349;SDS011;6744;53.190;6.576;2022-12-07T07:34:09;1.97;;;0.73;;
13349;SDS011;6744;53.190;6.576;2022-12-07T07:36:35;2.50;;;0.80;;
13349;SDS011;6744;53.190;6.576;2022-12-07T07:39:00;1.57;;;0.40;;
13349;SDS011;6744;53.190;6.576;2022-12-07T07:41:25;1.97;;;0.60;;
13349;SDS011;6744;53.190;6.576;2022-12-07T07:43:51;2.50;;;0.80;;
13349;SDS011;6744;53.190;6.576;2022-12-07T07:46:16;2.70;;;0.83;;
13349;SDS011;6744;53.190;6.576;2022-12-07T07:48:41;4.00;;;1.20;;
13349;SDS011;6744;53.190;6.576;2022-12-07T07:51:07;1.53;;;0.93;;
13349;SDS011;6744;53.190;6.576;2022-12-07T07:53:33;2.60;;;1.00;;
13349;SDS011;6744;53.190;6.576;2022-12-07T07:55:58;2.73;;;0.83;;
13349;SDS011;6744;53.190;6.576;2022-12-07T07:58:24;2.07;;;1.20;;
13349;SDS011;6744;53.190;6.576;2022-12-07T08:00:49;1.83;;;0.80;;
13349;SDS011;6744;53.190;6.576;2022-12-07T08:03:15;1.07;;;0.77;;
13349;SDS011;6744;53.190;6.576;2022-12-07T08:05:40;1.77;;;1.00;;
13349;SDS011;6744;53.190;6.576;2022-12-07T08:08:05;3.70;;;1.07;;
13349;SDS011;6744;53.190;6.576;2022-12-07T08:10:31;2.90;;;1.07;;
13349;SDS011;6744;53.190;6.576;2022-12-07T08:12:57;3.17;;;1.00;;
13349;SDS011;6744;53.190;6.576;2022-12-07T08:15:44;2.80;;;1.00;;
13349;SDS011;6744;53.190;6.576;2022-12-07T08:18:11;1.60;;;0.80;;
13349;SDS011;6744;53.190;6.576;2022-12-07T08:20:37;1.87;;;0.70;;
13349;SDS011;6744;53.190;6.576;2022-12-07T08:23:03;2.20;;;0.80;;
13349;SDS011;6744;53.190;6.576;2022-12-07T08:25:29;2.97;;;0.70;;
13349;SDS011;6744;53.190;6.576;2022-12-07T08:27:54;2.27;;;0.90;;
13349;SDS011;6744;53.190;6.576;2022-12-07T08:30:20;2.83;;;0.97;;
13349;SDS011;6744;53.190;6.576;2022-12-07T08:32:47;3.13;;;1.10;;
13349;SDS011;6744;53.190;6.576;2022-12-07T08:35:12;1.87;;;1.17;;
13349;SDS011;6744;53.190;6.576;2022-12-07T08:37:38;3.30;;;1.00;;
13349;SDS011;6744;53.190;6.576;2022-12-07T08:40:04;2.33;;;1.13;;
13349;SDS011;6744;53.190;6.576;2022-12-07T08:42:31;2.10;;;1.00;;
13349;SDS011;6744;53.190;6.576;2022-12-07T08:45:03;6.13;;;0.90;;
13349;SDS011;6744;53.190;6.576;2022-12-07T08:47:33;2.57;;;0.97;;
13349;SDS011;6744;53.190;6.576;2022-12-07T08:49:59;2.63;;;1.10;;
13349;SDS011;6744;53.190;6.576;2022-12-07T08:52:28;3.83;;;1.07;;
13349;SDS011;6744;53.190;6.576;2022-12-07T08:54:54;4.77;;;1.13;;
13349;SDS011;6744;53.190;6.576;2022-12-07T08:57:20;3.47;;;1.20;;
13349;SDS011;6744;53.190;6.576;2022-12-07T08:59:46;3.13;;;0.90;;
13349;SDS011;6744;53.190;6.576;2022-12-07T09:02:11;2.53;;;1.00;;
13349;SDS011;6744;53.190;6.576;2022-12-07T09:04:36;5.10;;;1.10;;
13349;SDS011;6744;53.190;6.576;2022-12-07T09:07:02;4.67;;;1.13;;
13349;SDS011;6744;53.190;6.576;2022-12-07T09:09:27;4.80;;;1.27;;
13349;SDS011;6744;53.190;6.576;2022-12-07T09:11:53;2.93;;;1.10;;
13349;SDS011;6744;53.190;6.576;2022-12-07T09:14:18;6.93;;;1.30;;
13349;SDS011;6744;53.190;6.576;2022-12-07T09:16:44;3.63;;;1.13;;
13349;SDS011;6744;53.190;6.576;2022-12-07T09:19:09;3.53;;;1.53;;
13349;SDS011;6744;53.190;6.576;2022-12-07T09:21:34;4.47;;;1.10;;
13349;SDS011;6744;53.190;6.576;2022-12-07T09:23:59;4.20;;;1.60;;
13349;SDS011;6744;53.190;6.576;2022-12-07T09:26:25;2.80;;;1.10;;
13349;SDS011;6744;53.190;6.576;2022-12-07T09:28:50;3.97;;;1.20;;
13349;SDS011;6744;53.190;6.576;2022-12-07T09:31:16;3.33;;;1.10;;
13349;SDS011;6744;53.190;6.576;2022-12-07T09:33:41;2.63;;;1.10;;
13349;SDS011;6744;53.190;6.576;2022-12-07T09:36:07;3.00;;;1.07;;
13349;SDS011;6744;53.190;6.576;2022-12-07T09:38:34;5.13;;;1.20;;
13349;SDS011;6744;53.190;6.576;2022-12-07T09:41:03;4.00;;;1.20;;
13349;SDS011;6744;53.190;6.576;2022-12-07T09:43:30;3.90;;;1.27;;
13349;SDS011;6744;53.190;6.576;2022-12-07T09:45:56;3.13;;;1.13;;
13349;SDS011;6744;53.190;6.576;2022-12-07T09:48:22;4.37;;;1.03;;
13349;SDS011;6744;53.190;6.576;2022-12-07T09:50:57;2.87;;;0.80;;
13349;SDS011;6744;53.190;6.576;2022-12-07T09:53:27;3.27;;;0.80;;
13349;SDS011;6744;53.190;6.576;2022-12-07T09:55:54;2.90;;;0.87;;
13349;SDS011;6744;53.190;6.576;2022-12-07T09:58:22;4.70;;;1.10;;
13349;SDS011;6744;53.190;6.576;2022-12-07T10:00:50;2.47;;;0.80;;
13349;SDS011;6744;53.190;6.576;2022-12-07T10:03:17;3.57;;;0.93;;
13349;SDS011;6744;53.190;6.576;2022-12-07T10:05:44;4.30;;;1.00;;
13349;SDS011;6744;53.190;6.576;2022-12-07T10:08:11;3.10;;;1.00;;
13349;SDS011;6744;53.190;6.576;2022-12-07T10:10:37;3.80;;;1.00;;
13349;SDS011;6744;53.190;6.576;2022-12-07T10:13:06;2.60;;;0.90;;
13349;SDS011;6744;53.190;6.576;2022-12-07T10:18:21;5.90;;;0.90;;
13349;SDS011;6744;53.190;6.576;2022-12-07T10:21:11;7.10;;;1.30;;
13349;SDS011;6744;53.190;6.576;2022-12-07T10:23:38;4.27;;;1.03;;
13349;SDS011;6744;53.190;6.576;2022-12-07T10:26:24;4.30;;;1.17;;
13349;SDS011;6744;53.190;6.576;2022-12-07T10:28:52;3.43;;;1.10;;
13349;SDS011;6744;53.190;6.576;2022-12-07T10:31:18;3.60;;;0.97;;
13349;SDS011;6744;53.190;6.576;2022-12-07T10:33:53;5.83;;;0.93;;
13349;SDS011;6744;53.190;6.576;2022-12-07T10:36:27;3.43;;;0.90;;
13349;SDS011;6744;53.190;6.576;2022-12-07T10:39:09;3.30;;;0.93;;
13349;SDS011;6744;53.190;6.576;2022-12-07T10:41:52;5.53;;;1.00;;
13349;SDS011;6744;53.190;6.576;2022-12-07T10:44:21;3.63;;;1.00;;
13349;SDS011;6744;53.190;6.576;2022-12-07T10:52:45;4.50;;;0.93;;
13349;SDS011;6744;53.190;6.576;2022-12-07T10:55:21;3.27;;;1.13;;
13349;SDS011;6744;53.190;6.576;2022-12-07T11:00:49;2.83;;;1.00;;
13349;SDS011;6744;53.190;6.576;2022-12-07T11:06:22;4.27;;;1.03;;
13349;SDS011;6744;53.190;6.576;2022-12-07T11:12:41;5.03;;;1.23;;
13349;SDS011;6744;53.190;6.576;2022-12-07T11:14:56;3.57;;;0.90;;
13349;SDS011;6744;53.190;6.576;2022-12-07T11:23:11;3.77;;;1.20;;
13349;SDS011;6744;53.190;6.576;2022-12-07T11:32:23;2.40;;;0.80;;
13349;SDS011;6744;53.190;6.576;2022-12-07T11:34:24;2.70;;;1.10;;
13349;SDS011;6744;53.190;6.576;2022-12-07T11:36:56;2.87;;;0.90;;
13349;SDS011;6744;53.190;6.576;2022-12-07T11:41:55;4.03;;;1.13;;
13349;SDS011;6744;53.190;6.576;2022-12-07T11:44:36;3.03;;;1.33;;
13349;SDS011;6744;53.190;6.576;2022-12-07T11:47:18;4.13;;;1.07;;
13349;SDS011;6744;53.190;6.576;2022-12-07T11:52:43;2.90;;;1.00;;
13349;SDS011;6744;53.190;6.576;2022-12-07T11:55:54;3.47;;;1.20;;
13349;SDS011;6744;53.190;6.576;2022-12-07T11:58:04;2.87;;;0.80;;
13349;SDS011;6744;53.190;6.576;2022-12-07T12:00:34;2.47;;;0.77;;
13349;SDS011;6744;53.190;6.576;2022-12-07T12:03:04;2.57;;;0.67;;
13349;SDS011;6744;53.190;6.576;2022-12-07T12:05:35;2.67;;;0.70;;
13349;SDS011;6744;53.190;6.576;2022-12-07T12:08:14;2.70;;;0.70;;
13349;SDS011;6744;53.190;6.576;2022-12-07T12:11:38;2.40;;;0.70;;
13349;SDS011;6744;53.190;6.576;2022-12-07T12:16:20;4.70;;;0.93;;
13349;SDS011;6744;53.190;6.576;2022-12-07T12:21:44;3.33;;;0.93;;
13349;SDS011;6744;53.190;6.576;2022-12-07T12:24:13;2.07;;;0.80;;
13349;SDS011;6744;53.190;6.576;2022-12-07T12:26:48;3.20;;;0.80;;
13349;SDS011;6744;53.190;6.576;2022-12-07T12:29:21;3.10;;;0.80;;
13349;SDS011;6744;53.190;6.576;2022-12-07T12:32:07;2.47;;;0.80;;
13349;SDS011;6744;53.190;6.576;2022-12-07T12:34:39;2.60;;;0.90;;
13349;SDS011;6744;53.190;6.576;2022-12-07T12:42:54;3.87;;;1.20;;
13349;SDS011;6744;53.190;6.576;2022-12-07T12:50:25;5.53;;;1.70;;
13349;SDS011;6744;53.190;6.576;2022-12-07T12:52:58;4.57;;;1.50;;
13349;SDS011;6744;53.190;6.576;2022-12-07T12:55:44;2.60;;;1.10;;
13349;SDS011;6744;53.190;6.576;2022-12-07T12:58:22;2.80;;;1.00;;
13349;SDS011;6744;53.190;6.576;2022-12-07T13:03:59;4.43;;;1.03;;
13349;SDS011;6744;53.190;6.576;2022-12-07T13:08:51;2.13;;;0.80;;
13349;SDS011;6744;53.190;6.576;2022-12-07T13:11:34;1.33;;;0.70;;
13349;SDS011;6744;53.190;6.576;2022-12-07T13:17:12;2.63;;;1.07;;
13349;SDS011;6744;53.190;6.576;2022-12-07T13:20:00;3.17;;;0.80;;
13349;SDS011;6744;53.190;6.576;2022-12-07T13:27:43;2.20;;;0.60;;
13349;SDS011;6744;53.190;6.576;2022-12-07T13:30:19;2.23;;;0.67;;
13349;SDS011;6744;53.190;6.576;2022-12-07T13:32:52;2.20;;;1.10;;
13349;SDS011;6744;53.190;6.576;2022-12-07T13:35:32;2.13;;;0.70;;
13349;SDS011;6744;53.190;6.576;2022-12-07T13:38:13;2.53;;;0.80;;
13349;SDS011;6744;53.190;6.576;2022-12-07T13:40:58;2.33;;;1.03;;
13349;SDS011;6744;53.190;6.576;2022-12-07T13:43:27;2.80;;;0.63;;
13349;SDS011;6744;53.190;6.576;2022-12-07T13:45:57;3.83;;;0.70;;
13349;SDS011;6744;53.190;6.576;2022-12-07T13:48:41;2.50;;;0.70;;
13349;SDS011;6744;53.190;6.576;2022-12-07T13:51:15;1.67;;;0.57;;
13349;SDS011;6744;53.190;6.576;2022-12-07T13:53:48;1.53;;;0.40;;
13349;SDS011;6744;53.190;6.576;2022-12-07T13:56:20;1.87;;;0.60;;
13349;SDS011;6744;53.190;6.576;2022-12-07T13:58:47;2.30;;;0.50;;
13349;SDS011;6744;53.190;6.576;2022-12-07T14:01:12;0.90;;;0.40;;
13349;SDS011;6744;53.190;6.576;2022-12-07T14:03:38;0.70;;;0.30;;
13349;SDS011;6744;53.190;6.576;2022-12-07T14:08:31;0.73;;;0.30;;
13349;SDS011;6744;53.190;6.576;2022-12-07T14:10:56;0.70;;;0.47;;
13349;SDS011;6744;53.190;6.576;2022-12-07T14:16:05;1.20;;;0.30;;
13349;SDS011;6744;53.190;6.576;2022-12-07T14:18:56;1.27;;;0.50;;
13349;SDS011;6744;53.190;6.576;2022-12-07T14:21:24;2.17;;;0.60;;
13349;SDS011;6744;53.190;6.576;2022-12-07T14:26:42;1.57;;;0.83;;
13349;SDS011;6744;53.190;6.576;2022-12-07T14:31:50;3.07;;;2.23;;
13349;SDS011;6744;53.190;6.576;2022-12-07T14:34:15;4.57;;;2.00;;
13349;SDS011;6744;53.190;6.576;2022-12-07T14:36:40;2.53;;;1.30;;
13349;SDS011;6744;53.190;6.576;2022-12-07T14:39:06;1.70;;;0.77;;
13349;SDS011;6744;53.190;6.576;2022-12-07T14:41:31;1.87;;;0.93;;
13349;SDS011;6744;53.190;6.576;2022-12-07T14:44:15;3.97;;;1.33;;
13349;SDS011;6744;53.190;6.576;2022-12-07T14:46:40;4.47;;;1.37;;
13349;SDS011;6744;53.190;6.576;2022-12-07T14:49:06;1.83;;;0.90;;
13349;SDS011;6744;53.190;6.576;2022-12-07T14:51:31;4.70;;;2.10;;
13349;SDS011;6744;53.190;6.576;2022-12-07T14:53:57;1.80;;;1.00;;
13349;SDS011;6744;53.190;6.576;2022-12-07T14:56:23;3.73;;;1.10;;
13349;SDS011;6744;53.190;6.576;2022-12-07T14:58:49;5.27;;;1.50;;
13349;SDS011;6744;53.190;6.576;2022-12-07T15:01:14;4.47;;;1.43;;
13349;SDS011;6744;53.190;6.576;2022-12-07T15:03:40;3.27;;;1.50;;
13349;SDS011;6744;53.190;6.576;2022-12-07T15:06:05;3.43;;;1.20;;
13349;SDS011;6744;53.190;6.576;2022-12-07T15:08:31;1.70;;;0.80;;
13349;SDS011;6744;53.190;6.576;2022-12-07T15:10:57;2.20;;;0.97;;
13349;SDS011;6744;53.190;6.576;2022-12-07T15:13:22;2.90;;;0.90;;
13349;SDS011;6744;53.190;6.576;2022-12-07T15:16:08;1.63;;;0.77;;
13349;SDS011;6744;53.190;6.576;2022-12-07T15:18:35;2.33;;;0.80;;
13349;SDS011;6744;53.190;6.576;2022-12-07T15:21:00;2.17;;;0.70;;
13349;SDS011;6744;53.190;6.576;2022-12-07T15:23:25;3.13;;;0.87;;
13349;SDS011;6744;53.190;6.576;2022-12-07T15:25:51;3.33;;;0.80;;
13349;SDS011;6744;53.190;6.576;2022-12-07T15:28:16;2.13;;;0.60;;
13349;SDS011;6744;53.190;6.576;2022-12-07T15:30:42;2.50;;;0.60;;
13349;SDS011;6744;53.190;6.576;2022-12-07T15:33:08;1.03;;;0.60;;
13349;SDS011;6744;53.190;6.576;2022-12-07T15:35:33;2.63;;;0.90;;
13349;SDS011;6744;53.190;6.576;2022-12-07T15:38:04;1.80;;;0.57;;
13349;SDS011;6744;53.190;6.576;2022-12-07T15:40:29;2.50;;;0.63;;
13349;SDS011;6744;53.190;6.576;2022-12-07T15:42:54;2.13;;;0.60;;
13349;SDS011;6744;53.190;6.576;2022-12-07T15:45:20;2.10;;;0.60;;
13349;SDS011;6744;53.190;6.576;2022-12-07T15:47:45;1.33;;;0.50;;
13349;SDS011;6744;53.190;6.576;2022-12-07T15:50:12;2.13;;;0.70;;
13349;SDS011;6744;53.190;6.576;2022-12-07T15:52:39;1.37;;;0.50;;
13349;SDS011;6744;53.190;6.576;2022-12-07T15:55:04;0.70;;;0.40;;
13349;SDS011;6744;53.190;6.576;2022-12-07T15:57:31;3.07;;;0.53;;
13349;SDS011;6744;53.190;6.576;2022-12-07T15:59:57;2.10;;;0.60;;
13349;SDS011;6744;53.190;6.576;2022-12-07T16:02:22;0.70;;;0.50;;
13349;SDS011;6744;53.190;6.576;2022-12-07T16:04:48;3.13;;;1.00;;
13349;SDS011;6744;53.190;6.576;2022-12-07T16:07:13;2.07;;;0.80;;
13349;SDS011;6744;53.190;6.576;2022-12-07T16:09:40;3.13;;;0.90;;
13349;SDS011;6744;53.190;6.576;2022-12-07T16:12:06;1.47;;;0.63;;
13349;SDS011;6744;53.190;6.576;2022-12-07T16:14:32;1.07;;;0.60;;
13349;SDS011;6744;53.190;6.576;2022-12-07T16:16:58;1.90;;;0.80;;
13349;SDS011;6744;53.190;6.576;2022-12-07T16:19:24;2.80;;;1.10;;
13349;SDS011;6744;53.190;6.576;2022-12-07T16:21:49;1.90;;;1.00;;
13349;SDS011;6744;53.190;6.576;2022-12-07T16:24:14;4.17;;;1.00;;
13349;SDS011;6744;53.190;6.576;2022-12-07T16:26:41;3.27;;;1.20;;
13349;SDS011;6744;53.190;6.576;2022-12-07T16:29:07;2.63;;;1.20;;
13349;SDS011;6744;53.190;6.576;2022-12-07T16:31:32;2.27;;;1.13;;
13349;SDS011;6744;53.190;6.576;2022-12-07T16:33:58;2.33;;;1.40;;
13349;SDS011;6744;53.190;6.576;2022-12-07T16:36:24;4.07;;;1.00;;
13349;SDS011;6744;53.190;6.576;2022-12-07T16:38:51;2.57;;;0.77;;
13349;SDS011;6744;53.190;6.576;2022-12-07T16:41:16;3.10;;;0.90;;
13349;SDS011;6744;53.190;6.576;2022-12-07T16:43:42;1.77;;;0.97;;
13349;SDS011;6744;53.190;6.576;2022-12-07T16:46:08;2.17;;;1.00;;
13349;SDS011;6744;53.190;6.576;2022-12-07T16:48:37;2.33;;;1.03;;
13349;SDS011;6744;53.190;6.576;2022-12-07T16:51:07;2.40;;;0.87;;
13349;SDS011;6744;53.190;6.576;2022-12-07T16:53:34;1.80;;;0.70;;
13349;SDS011;6744;53.190;6.576;2022-12-07T16:55:59;1.10;;;0.70;;
13349;SDS011;6744;53.190;6.576;2022-12-07T16:58:25;2.47;;;0.50;;